KSIY/SIY METAR and TAF weather

Enter ICAO airport designator
Station Type Date Time Source
KSIY METAR 2020/09/23 01:53 UTC NOAA

KSIY 230153Z AUTO 30005KT 7SM FEW050 23/02 A3005 RMK AO2 SLP172 T02280017


Station Type Date Time Source
KSIY Decoded METAR 2020/09/23 01:53 UTC NOAA

MONTAGUE SISKIYOU COUNTY, CA, United States (KSIY) 41-46N 122-28W
Sep 22, 2020 - 09:53 PM EDT / 2020.09.23 0153 UTC
Wind: from the WNW (300 degrees) at 6 MPH (5 KT):0
Visibility: 7 mile(s):0
Sky conditions: mostly clear
Temperature: 73.0 F (22.8 C)
Dew Point: 35.1 F (1.7 C)
Relative Humidity: 24%
Pressure (altimeter): 30.05 in. Hg (1017 hPa)
ob: KSIY 230153Z AUTO 30005KT 7SM FEW050 23/02 A3005 RMK AO2 SLP172 T02280017
cycle: 2

Station Type Date Time Source
KSIY TAF UTC NOAA

Error!

Example: see airport list